Time;durP1;ratioP1;P1;durP2;ratioP2;P2;SDS_P1;SDS_P2;PMS_P1;PMS_P2;Temp;Humidity;BMP_temperature;BMP_pressure;BME280_temperature;BME280_humidity;BME280_pressure;Samples;Min_cycle;Max_cycle;Signal;HPM_P1;HPM_P2
2021/07/23 04:31:34;;;;;;;14.40;10.70;;;15.20;99.90;;;;;;5627604;23;20523;-83
2021/07/23 04:34:00;;;;;;;14.90;10.30;;;15.20;99.90;;;;;;4947310;29;20432;-81
2021/07/23 04:36:27;;;;;;;18.20;10.00;;;15.20;99.90;;;;;;4957846;29;20188;-81
2021/07/23 04:38:53;;;;;;;20.03;10.60;;;15.20;99.90;;;;;;4937589;28;20484;-81
2021/07/23 04:41:18;;;;;;;15.10;10.57;;;15.30;99.90;;;;;;4917356;29;21037;-81
2021/07/23 04:43:44;;;;;;;16.27;10.53;;;15.30;99.90;;;;;;4901900;29;20240;-82
2021/07/23 04:46:10;;;;;;;16.33;10.70;;;15.40;99.90;;;;;;4901420;29;20191;-82
2021/07/23 04:48:36;;;;;;;15.67;11.17;;;15.40;99.90;;;;;;4902372;29;20265;-88
2021/07/23 04:51:03;;;;;;;13.07;10.00;;;15.50;99.90;;;;;;4917351;29;20458;-89
2021/07/23 04:53:29;;;;;;;13.17;10.87;;;15.60;99.90;;;;;;4902012;29;20197;-85
2021/07/23 04:55:58;;;;;;;14.93;11.83;;;15.70;99.90;;;;;;4901836;29;20908;-82
2021/07/23 04:58:24;;;;;;;16.47;11.90;;;15.70;99.90;;;;;;4900912;29;20175;-83
2021/07/23 05:00:50;;;;;;;15.90;11.57;;;15.80;99.90;;;;;;4915136;29;20464;-81
2021/07/23 05:03:16;;;;;;;16.90;10.80;;;15.90;99.90;;;;;;4900966;29;20183;-82
2021/07/23 05:05:45;;;;;;;15.03;10.67;;;16.00;99.90;;;;;;4915390;29;20978;-81
2021/07/23 05:08:12;;;;;;;18.30;10.50;;;16.20;99.90;;;;;;4900914;29;20218;-81
2021/07/23 05:10:40;;;;;;;12.43;9.63;;;16.30;99.90;;;;;;4901352;29;20522;-81
2021/07/23 05:13:06;;;;;;;18.27;11.07;;;16.40;99.90;;;;;;4899551;29;20434;-82
2021/07/23 05:15:33;;;;;;;13.03;10.00;;;16.60;99.90;;;;;;4901547;29;20423;-82
2021/07/23 05:18:00;;;;;;;12.20;10.30;;;16.80;99.90;;;;;;4900871;29;20434;-82
2021/07/23 05:20:25;;;;;;;14.77;10.30;;;17.10;99.90;;;;;;4902422;29;20419;-82
2021/07/23 05:22:51;;;;;;;14.47;9.67;;;17.50;99.90;;;;;;4900460;29;20426;-82
2021/07/23 05:25:17;;;;;;;17.60;10.90;;;17.80;99.90;;;;;;4901012;29;20193;-84
2021/07/23 05:27:42;;;;;;;13.60;10.23;;;18.00;99.90;;;;;;4915207;29;20213;-83
2021/07/23 05:30:08;;;;;;;14.10;10.07;;;18.10;99.90;;;;;;4900692;29;20179;-83
2021/07/23 05:32:34;;;;;;;12.77;10.27;;;18.30;99.90;;;;;;4900510;29;20214;-83
2021/07/23 05:34:59;;;;;;;15.27;10.70;;;18.40;99.90;;;;;;4899142;29;20274;-83
2021/07/23 05:37:25;;;;;;;14.67;10.47;;;18.60;99.90;;;;;;4899455;29;20541;-83
2021/07/23 05:39:51;;;;;;;15.70;10.60;;;18.90;99.90;;;;;;4898706;29;20270;-84
2021/07/23 05:42:16;;;;;;;12.53;9.43;;;19.10;99.90;;;;;;4915325;29;20202;-83
2021/07/23 05:44:42;;;;;;;12.40;10.30;;;19.20;99.90;;;;;;4899877;29;20178;-83
2021/07/23 05:47:07;;;;;;;10.40;8.97;;;19.20;99.90;;;;;;4900506;29;20179;-83
2021/07/23 05:49:33;;;;;;;13.33;10.47;;;19.20;99.90;;;;;;4900024;29;20285;-83
2021/07/23 05:51:59;;;;;;;13.90;10.20;;;19.50;99.90;;;;;;4899615;29;20217;-84
2021/07/23 05:54:24;;;;;;;15.37;10.83;;;19.90;99.90;;;;;;4900349;29;20191;-83
2021/07/23 05:56:50;;;;;;;16.47;10.80;;;20.30;99.90;;;;;;4914149;29;20185;-84
2021/07/23 05:59:19;;;;;;;17.50;10.27;;;20.60;99.90;;;;;;4914132;29;20624;-84
2021/07/23 06:01:45;;;;;;;15.27;11.13;;;20.90;99.90;;;;;;4902186;29;20207;-83
2021/07/23 06:04:10;;;;;;;13.90;10.40;;;21.00;99.90;;;;;;4910021;29;20434;-83
2021/07/23 06:06:36;;;;;;;14.10;10.77;;;21.30;99.90;;;;;;4903412;29;20182;-80
2021/07/23 06:09:02;;;;;;;14.63;10.57;;;21.60;99.90;;;;;;4904590;29;20218;-80
2021/07/23 06:11:27;;;;;;;16.97;10.20;;;21.80;99.90;;;;;;4903942;29;20269;-81
2021/07/23 06:13:53;;;;;;;18.93;12.20;;;22.00;99.90;;;;;;4901563;29;20233;-81
2021/07/23 06:16:19;;;;;;;14.03;9.70;;;22.30;99.90;;;;;;4904046;29;20179;-81
2021/07/23 06:18:44;;;;;;;15.63;9.97;;;22.50;99.90;;;;;;4902862;29;20194;-81
2021/07/23 06:21:10;;;;;;;13.77;11.13;;;22.70;99.90;;;;;;4901177;29;20202;-81
2021/07/23 06:23:36;;;;;;;17.53;10.93;;;23.00;99.90;;;;;;4901688;29;20221;-80
2021/07/23 06:26:06;;;;;;;16.43;10.63;;;23.10;99.90;;;;;;4904864;29;20182;-80
2021/07/23 06:28:32;;;;;;;15.40;10.43;;;23.10;99.90;;;;;;4902391;29;20557;-81
2021/07/23 06:31:01;;;;;;;18.20;11.10;;;23.10;99.90;;;;;;4901901;29;20527;-82
2021/07/23 06:33:27;;;;;;;16.00;11.43;;;23.10;99.90;;;;;;4909675;29;20437;-81
2021/07/23 06:35:53;;;;;;;16.10;11.00;;;23.30;99.90;;;;;;4920378;29;20426;-81
2021/07/23 06:38:18;;;;;;;13.63;10.80;;;23.50;99.90;;;;;;4918507;29;20258;-81
2021/07/23 06:40:44;;;;;;;12.33;10.33;;;23.80;99.90;;;;;;4918950;29;20543;-81
2021/07/23 06:43:10;;;;;;;14.40;10.80;;;24.10;99.90;;;;;;4919802;29;20193;-81
2021/07/23 06:45:35;;;;;;;23.87;10.90;;;24.40;99.90;;;;;;4918146;29;20185;-81
2021/07/23 06:48:01;;;;;;;16.67;10.30;;;24.50;99.90;;;;;;4917306;29;20254;-81
2021/07/23 06:50:27;;;;;;;15.47;11.13;;;24.60;99.90;;;;;;4917220;29;20201;-81
2021/07/23 06:52:52;;;;;;;15.10;10.10;;;24.30;99.90;;;;;;4917096;29;20174;-81
2021/07/23 06:55:18;;;;;;;26.27;11.60;;;24.20;99.90;;;;;;4918203;29;20174;-82
2021/07/23 06:57:43;;;;;;;16.57;10.90;;;24.40;99.90;;;;;;4919810;29;20185;-82
2021/07/23 07:00:10;;;;;;;11.83;9.60;;;24.50;99.90;;;;;;4917793;29;20218;-82
2021/07/23 07:02:36;;;;;;;13.97;11.00;;;24.80;99.90;;;;;;4921283;29;20201;-82
2021/07/23 07:05:02;;;;;;;13.27;10.00;;;25.10;99.90;;;;;;4918032;29;20497;-81
2021/07/23 07:07:28;;;;;;;19.07;11.30;;;25.30;99.90;;;;;;4918763;29;20194;-81
2021/07/23 07:09:54;;;;;;;13.30;9.70;;;25.30;99.90;;;;;;4920073;29;20578;-82
2021/07/23 07:12:20;;;;;;;12.10;9.53;;;25.40;99.90;;;;;;4919149;29;20537;-82
2021/07/23 07:14:45;;;;;;;14.13;10.90;;;25.60;99.90;;;;;;4918115;29;20558;-82
2021/07/23 07:17:11;;;;;;;12.70;10.50;;;25.60;99.90;;;;;;4919487;29;20206;-81
2021/07/23 07:19:37;;;;;;;12.30;10.70;;;25.70;99.90;;;;;;4919196;29;20322;-81
2021/07/23 07:22:04;;;;;;;16.03;10.77;;;25.50;99.90;;;;;;4919559;29;20482;-81
2021/07/23 07:24:30;;;;;;;13.57;10.27;;;25.70;99.90;;;;;;4918018;29;20473;-82
2021/07/23 07:26:55;;;;;;;14.80;10.67;;;25.80;99.90;;;;;;4918568;29;20878;-81
2021/07/23 07:29:21;;;;;;;13.70;10.70;;;26.00;99.90;;;;;;4918457;29;20253;-81
2021/07/23 07:31:47;;;;;;;12.33;10.50;;;26.00;99.90;;;;;;4918508;29;20218;-81
2021/07/23 07:34:13;;;;;;;18.03;10.23;;;26.00;99.90;;;;;;4920383;29;20186;-80
2021/07/23 07:36:39;;;;;;;22.20;10.50;;;25.80;99.90;;;;;;4917041;29;20189;-82
2021/07/23 07:39:05;;;;;;;11.87;9.97;;;26.20;99.90;;;;;;4914026;29;20441;-82
2021/07/23 07:41:31;;;;;;;11.70;9.97;;;26.10;99.90;;;;;;4903162;29;20334;-83
2021/07/23 07:43:57;;;;;;;12.33;9.63;;;26.00;99.90;;;;;;4918995;29;20290;-82
2021/07/23 07:46:23;;;;;;;13.23;10.57;;;26.60;99.90;;;;;;4912794;29;20474;-83
2021/07/23 07:48:49;;;;;;;13.80;12.10;;;26.90;99.90;;;;;;4918666;29;20212;-82
2021/07/23 07:51:15;;;;;;;14.30;11.00;;;27.00;99.90;;;;;;4919227;29;20536;-82
2021/07/23 07:53:40;;;;;;;13.60;10.90;;;27.10;99.90;;;;;;4918727;29;20639;-83
2021/07/23 07:56:07;;;;;;;14.57;10.93;;;27.30;99.90;;;;;;4918488;29;20277;-83
2021/07/23 07:58:33;;;;;;;15.00;11.33;;;27.60;99.90;;;;;;4916617;29;20200;-83
2021/07/23 08:00:59;;;;;;;21.17;11.80;;;27.90;99.90;;;;;;4918138;29;20824;-83
2021/07/23 08:03:24;;;;;;;12.60;10.93;;;28.10;99.90;;;;;;4917431;29;20182;-83
2021/07/23 08:05:54;;;;;;;12.03;10.53;;;28.10;99.90;;;;;;4918248;29;20178;-83
2021/07/23 08:08:21;;;;;;;17.30;11.03;;;28.10;99.90;;;;;;4917444;29;20770;-83
2021/07/23 08:10:47;;;;;;;12.30;10.70;;;28.20;99.90;;;;;;4919691;29;20433;-83
2021/07/23 08:13:13;;;;;;;14.43;9.70;;;28.20;99.90;;;;;;4919113;29;20756;-83
2021/07/23 08:15:40;;;;;;;12.40;10.07;;;28.40;99.90;;;;;;4921098;29;20422;-84
2021/07/23 08:18:06;;;;;;;14.00;10.27;;;28.50;99.90;;;;;;4920264;29;20418;-83
2021/07/23 08:20:32;;;;;;;17.20;9.53;;;28.80;99.90;;;;;;4918616;29;21017;-83
2021/07/23 08:23:01;;;;;;;14.33;11.37;;;28.80;99.90;;;;;;4919593;29;20441;-88
2021/07/23 08:25:26;;;;;;;14.20;11.90;;;29.10;99.90;;;;;;4916387;29;20430;-88
2021/07/23 08:27:52;;;;;;;17.07;11.10;;;28.80;99.90;;;;;;4917415;29;20446;-84
2021/07/23 08:30:17;;;;;;;11.60;10.07;;;28.80;99.90;;;;;;4917987;29;20608;-87
2021/07/23 08:32:44;;;;;;;16.63;11.47;;;28.60;99.90;;;;;;4917461;29;20799;-86
2021/07/23 08:35:10;;;;;;;16.00;11.77;;;28.60;99.90;;;;;;4916626;29;20415;-86
2021/07/23 08:37:36;;;;;;;13.80;10.00;;;28.90;99.90;;;;;;4916126;29;20181;-85
2021/07/23 08:40:05;;;;;;;17.77;11.10;;;29.40;99.90;;;;;;4916057;29;20193;-85
2021/07/23 08:42:32;;;;;;;15.40;10.63;;;29.80;99.90;;;;;;4920463;29;20694;-85
2021/07/23 08:45:00;;;;;;;14.50;11.27;;;30.30;99.90;;;;;;4918751;29;20950;-85
2021/07/23 08:47:25;;;;;;;11.90;10.23;;;30.20;99.90;;;;;;4921857;29;20422;-85
2021/07/23 08:49:52;;;;;;;13.67;10.87;;;30.20;99.90;;;;;;4919597;29;20517;-85
2021/07/23 08:52:36;;;;;;;15.87;9.67;;;30.40;99.90;;;;;;4917324;29;20202;-85
2021/07/23 08:55:02;;;;;;;17.37;10.43;;;30.80;99.90;;;;;;4918995;29;20418;-85
2021/07/23 08:57:28;;;;;;;15.13;9.30;;;31.20;99.90;;;;;;4917973;29;20485;-85
2021/07/23 08:59:54;;;;;;;12.20;9.83;;;31.30;99.90;;;;;;4917113;29;20425;-85
2021/07/23 09:02:19;;;;;;;10.20;9.20;;;31.30;99.90;;;;;;4913332;29;20455;-86
2021/07/23 09:04:45;;;;;;;10.23;9.30;;;31.50;99.90;;;;;;4911592;29;20263;-86
2021/07/23 09:07:10;;;;;;;14.40;10.33;;;31.80;99.90;;;;;;4920381;29;20213;-86
2021/07/23 09:09:36;;;;;;;11.37;10.17;;;31.70;99.90;;;;;;4919167;29;20257;-86
2021/07/23 09:12:02;;;;;;;12.67;9.70;;;31.60;99.90;;;;;;4919464;29;20257;-86
2021/07/23 09:14:28;;;;;;;16.40;10.77;;;31.20;99.90;;;;;;4916685;29;20213;-84
2021/07/23 09:16:57;;;;;;;15.77;10.27;;;31.30;99.90;;;;;;4919877;29;20174;-84
2021/07/23 09:19:22;;;;;;;13.83;9.30;;;31.50;99.90;;;;;;4919720;29;20190;-84
2021/07/23 09:21:58;;;;;;;13.90;10.80;;;31.90;99.90;;;;;;4922272;29;20519;-85
2021/07/23 09:24:24;;;;;;;14.77;10.17;;;31.90;99.90;;;;;;4919283;29;20623;-85
2021/07/23 09:26:51;;;;;;;12.63;10.47;;;31.90;99.90;;;;;;4919467;29;20820;-85
2021/07/23 09:29:16;;;;;;;13.87;8.43;;;32.30;99.90;;;;;;4919117;29;20457;-85
2021/07/23 09:32:07;;;;;;;11.40;9.90;;;32.80;99.90;;;;;;4919127;29;20796;-85
2021/07/23 09:34:33;;;;;;;10.27;8.87;;;33.30;99.90;;;;;;4919637;29;20237;-85
2021/07/23 09:37:09;;;;;;;14.03;10.83;;;33.50;99.90;;;;;;4918346;29;20426;-85
2021/07/23 09:39:35;;;;;;;11.03;9.50;;;33.60;99.90;;;;;;4919409;29;20182;-86
2021/07/23 09:42:02;;;;;;;12.13;9.20;;;33.70;99.90;;;;;;4902819;29;20435;-86
2021/07/23 09:44:28;;;;;;;11.03;9.73;;;34.00;99.90;;;;;;4919408;29;20178;-85
2021/07/23 09:46:54;;;;;;;10.97;9.60;;;34.30;99.90;;;;;;4919038;29;20428;-85
2021/07/23 09:49:26;;;;;;;16.73;11.00;;;34.00;99.90;;;;;;4917884;29;20476;-85
2021/07/23 09:51:52;;;;;;;12.63;9.97;;;34.00;99.90;;;;;;4934318;29;20206;-85
2021/07/23 09:54:19;;;;;;;10.30;9.30;;;34.10;99.90;;;;;;4917944;29;20419;-85
2021/07/23 09:56:46;;;;;;;11.33;8.77;;;33.40;99.90;;;;;;4918109;29;20977;-85
2021/07/23 09:59:33;;;;;;;18.13;9.30;;;33.60;99.90;;;;;;4918699;29;20517;-86
2021/07/23 10:02:05;;;;;;;10.47;8.63;;;34.00;99.90;;;;;;4918019;29;20484;-85
2021/07/23 10:04:38;;;;;;;13.57;11.13;;;34.20;99.90;;;;;;4920272;29;20485;-84
2021/07/23 10:07:10;;;;;;;9.80;8.90;;;34.30;99.90;;;;;;4920785;29;20434;-84
2021/07/23 10:09:43;;;;;;;10.73;9.63;;;34.70;99.90;;;;;;4922858;29;20958;-84
2021/07/23 10:12:12;;;;;;;12.23;10.40;;;35.00;99.80;;;;;;4907183;29;20481;-86
2021/07/23 10:14:41;;;;;;;13.87;10.70;;;34.90;98.50;;;;;;4921807;29;20462;-83
2021/07/23 10:17:08;;;;;;;11.83;10.57;;;34.70;98.10;;;;;;4919967;29;20833;-83
2021/07/23 10:19:36;;;;;;;11.17;9.50;;;34.60;99.30;;;;;;4919590;29;20422;-83
2021/07/23 10:22:02;;;;;;;10.13;9.13;;;34.70;99.60;;;;;;4919179;29;20465;-83
2021/07/23 10:24:31;;;;;;;15.40;10.67;;;34.80;99.10;;;;;;4920052;29;20529;-82
2021/07/23 10:26:58;;;;;;;11.33;10.30;;;34.50;97.60;;;;;;4920811;29;20776;-83
2021/07/23 10:29:49;;;;;;;14.87;9.83;;;34.30;98.50;;;;;;4923657;29;20477;-83
2021/07/23 10:32:24;;;;;;;11.10;9.30;;;34.40;99.00;;;;;;4921880;29;20855;-86
2021/07/23 10:34:50;;;;;;;11.60;9.47;;;34.70;97.80;;;;;;4917814;29;20496;-87
2021/07/23 10:37:28;;;;;;;11.83;9.00;;;34.90;97.80;;;;;;4918733;29;20846;-86
2021/07/23 10:40:09;;;;;;;12.00;10.33;;;34.80;96.10;;;;;;4919382;29;20420;-86
2021/07/23 10:42:39;;;;;;;10.60;9.07;;;34.00;98.20;;;;;;4915912;29;20540;-87
2021/07/23 10:45:26;;;;;;;12.60;10.40;;;33.60;97.90;;;;;;4918148;29;20418;-86
2021/07/23 10:47:51;;;;;;;11.53;10.43;;;34.00;96.90;;;;;;4915630;29;20422;-86
2021/07/23 10:50:23;;;;;;;13.77;11.57;;;33.90;98.00;;;;;;4917869;29;20465;-85
2021/07/23 10:52:49;;;;;;;12.23;10.20;;;33.70;96.70;;;;;;4916739;29;20197;-85
2021/07/23 10:55:22;;;;;;;14.63;10.53;;;33.70;97.60;;;;;;4917625;29;20776;-85
2021/07/23 10:58:08;;;;;;;16.30;9.53;;;33.30;97.00;;;;;;4917697;29;20201;-85
2021/07/23 11:00:51;;;;;;;11.63;10.27;;;33.50;98.10;;;;;;4917152;29;20946;-85
2021/07/23 11:03:35;;;;;;;13.20;10.83;;;33.80;97.00;;;;;;4916403;29;20440;-85
2021/07/23 11:06:01;;;;;;;12.40;10.07;;;34.10;97.40;;;;;;4917376;29;20462;-85
2021/07/23 11:08:27;;;;;;;10.90;9.80;;;34.50;97.70;;;;;;4918390;29;20522;-84
2021/07/23 11:10:54;;;;;;;11.30;10.17;;;34.50;97.40;;;;;;4917684;29;20430;-84
2021/07/23 11:13:23;;;;;;;11.77;10.63;;;34.30;97.50;;;;;;4915865;29;20429;-85
2021/07/23 11:16:06;;;;;;;12.47;11.23;;;34.30;96.90;;;;;;4917701;29;20418;-84
2021/07/23 11:18:32;;;;;;;11.80;10.70;;;34.20;96.70;;;;;;4917363;29;20415;-84
2021/07/23 11:20:58;;;;;;;11.70;9.53;;;34.30;95.90;;;;;;4917379;29;20554;-84
2021/07/23 11:23:30;;;;;;;14.33;11.40;;;34.00;95.70;;;;;;4918795;29;20182;-84
2021/07/23 11:25:58;;;;;;;14.93;10.87;;;33.50;96.80;;;;;;4917648;29;20170;-83
2021/07/23 11:28:25;;;;;;;12.20;10.90;;;33.10;97.20;;;;;;4918121;29;20465;-83
2021/07/23 11:30:53;;;;;;;12.03;10.43;;;32.80;97.70;;;;;;4917055;29;20442;-84
2021/07/23 11:33:28;;;;;;;12.90;11.27;;;32.70;97.40;;;;;;4916783;29;20935;-83
2021/07/23 11:35:53;;;;;;;12.13;9.83;;;32.70;98.70;;;;;;4917753;29;20407;-83
2021/07/23 11:38:19;;;;;;;11.63;10.43;;;32.90;98.60;;;;;;4916476;29;20426;-84
2021/07/23 11:40:45;;;;;;;13.43;11.47;;;33.10;96.80;;;;;;4918052;29;20201;-83
2021/07/23 11:43:21;;;;;;;12.17;10.90;;;33.10;96.70;;;;;;4916547;29;20213;-83
2021/07/23 11:45:48;;;;;;;12.40;10.83;;;32.80;96.90;;;;;;4917580;29;20177;-84
2021/07/23 11:48:14;;;;;;;12.23;11.03;;;32.00;97.20;;;;;;4916840;29;20512;-84
2021/07/23 11:50:51;;;;;;;17.70;10.53;;;31.40;97.90;;;;;;4916459;29;20474;-84
2021/07/23 11:53:16;;;;;;;11.63;10.23;;;31.10;98.60;;;;;;4916308;29;20177;-84
2021/07/23 11:55:43;;;;;;;12.93;11.40;;;31.00;98.40;;;;;;4917335;29;20449;-84
2021/07/23 11:58:20;;;;;;;12.00;10.43;;;31.10;98.60;;;;;;4917701;29;20210;-84
2021/07/23 12:00:46;;;;;;;15.97;10.63;;;31.20;98.80;;;;;;4917335;29;20496;-85
2021/07/23 12:03:17;;;;;;;11.33;9.87;;;31.40;99.20;;;;;;4916644;29;20560;-87
2021/07/23 12:05:43;;;;;;;17.90;10.97;;;31.60;99.90;;;;;;4920156;29;20174;-86
2021/07/23 12:08:09;;;;;;;14.87;12.10;;;31.80;99.90;;;;;;4917874;29;20429;-88
2021/07/23 12:10:35;;;;;;;15.13;11.43;;;31.60;99.10;;;;;;4916143;29;20614;-87
2021/07/23 12:13:09;;;;;;;13.40;10.00;;;31.70;98.80;;;;;;4915845;29;20185;-87
2021/07/23 12:15:55;;;;;;;12.93;11.47;;;31.90;99.90;;;;;;4915951;29;20430;-87
2021/07/23 12:18:25;;;;;;;13.33;10.37;;;32.10;98.60;;;;;;4919075;29;20887;-86
2021/07/23 12:20:52;;;;;;;12.67;10.67;;;32.10;98.50;;;;;;4919201;29;20450;-87
2021/07/23 12:23:25;;;;;;;11.00;9.90;;;32.00;97.90;;;;;;4919618;29;20425;-87
2021/07/23 12:25:52;;;;;;;13.10;10.83;;;31.70;99.90;;;;;;4919228;29;20881;-87
2021/07/23 12:28:18;;;;;;;11.60;10.30;;;31.70;99.30;;;;;;4917423;29;20548;-87
2021/07/23 12:30:48;;;;;;;14.37;10.80;;;31.60;99.00;;;;;;4917471;29;20465;-87
2021/07/23 12:33:28;;;;;;;11.90;10.77;;;31.00;98.20;;;;;;4920501;29;20439;-87
2021/07/23 12:35:58;;;;;;;11.80;10.70;;;30.80;98.50;;;;;;4916905;29;21018;-86
2021/07/23 12:38:28;;;;;;;18.63;10.50;;;30.60;99.40;;;;;;4916097;29;20429;-88
2021/07/23 12:41:02;;;;;;;11.03;9.93;;;30.60;99.90;;;;;;4924561;29;20477;-88
2021/07/23 12:43:29;;;;;;;11.93;10.63;;;30.60;99.90;;;;;;4919005;29;20442;-87
2021/07/23 12:46:18;;;;;;;13.50;10.13;;;30.70;99.90;;;;;;4916080;29;20436;-87
2021/07/23 12:48:44;;;;;;;11.93;10.73;;;30.80;99.90;;;;;;4914265;29;20881;-87
2021/07/23 12:51:11;;;;;;;12.70;10.13;;;30.70;99.50;;;;;;4921268;29;21022;-86
2021/07/23 12:53:39;;;;;;;12.30;11.00;;;30.50;99.80;;;;;;4920116;29;20651;-86
2021/07/23 12:56:07;;;;;;;12.87;10.23;;;30.50;99.20;;;;;;4920176;29;20422;-86
2021/07/23 12:58:45;;;;;;;11.90;10.70;;;30.60;99.60;;;;;;4919788;29;20485;-86
2021/07/23 13:01:13;;;;;;;11.90;10.80;;;30.40;99.90;;;;;;4920282;29;20974;-87
2021/07/23 13:03:39;;;;;;;12.60;11.03;;;29.90;99.20;;;;;;4920542;29;20501;-87
2021/07/23 13:06:07;;;;;;;12.57;10.67;;;29.70;99.50;;;;;;4920494;29;20525;-86
2021/07/23 13:08:33;;;;;;;11.63;10.53;;;29.60;99.00;;;;;;4919334;29;20486;-87
2021/07/23 13:10:59;;;;;;;16.57;11.60;;;29.60;99.90;;;;;;4921344;29;20434;-86
2021/07/23 13:13:25;;;;;;;11.80;10.50;;;29.80;99.20;;;;;;4918735;29;20437;-86
2021/07/23 13:15:51;;;;;;;14.93;11.80;;;29.80;98.80;;;;;;4924778;29;20705;-87
2021/07/23 13:18:17;;;;;;;20.13;10.87;;;29.70;98.90;;;;;;4937968;29;20448;-87
2021/07/23 13:20:42;;;;;;;14.87;11.33;;;29.80;99.90;;;;;;4936579;29;20216;-87
2021/07/23 13:23:08;;;;;;;11.97;9.60;;;29.80;99.90;;;;;;4936673;29;20701;-86
2021/07/23 13:25:34;;;;;;;13.63;11.10;;;29.80;99.90;;;;;;4938778;29;20235;-87
2021/07/23 13:28:00;;;;;;;13.63;10.40;;;29.70;99.50;;;;;;4937102;29;20196;-87
2021/07/23 13:30:26;;;;;;;11.30;9.37;;;29.70;99.90;;;;;;4938687;29;20413;-87
2021/07/23 13:32:52;;;;;;;12.77;9.10;;;29.80;99.90;;;;;;4937418;29;20550;-87
2021/07/23 13:35:18;;;;;;;12.30;11.00;;;29.70;99.90;;;;;;4937335;29;20244;-88
2021/07/23 13:37:51;;;;;;;12.33;10.80;;;29.60;98.90;;;;;;4938223;29;20441;-87
2021/07/23 13:40:24;;;;;;;13.00;10.37;;;29.50;99.10;;;;;;4937041;29;20516;-88
2021/07/23 13:42:53;;;;;;;11.67;10.47;;;29.40;98.70;;;;;;4937831;29;20432;-87
2021/07/23 13:45:19;;;;;;;16.30;11.50;;;29.40;99.90;;;;;;4938045;29;20429;-88
2021/07/23 13:47:47;;;;;;;11.87;10.67;;;29.50;99.90;;;;;;4938072;29;20421;-86
2021/07/23 13:50:14;;;;;;;16.00;10.77;;;29.50;99.90;;;;;;4938323;29;20345;-86
2021/07/23 13:52:40;;;;;;;10.53;9.53;;;29.40;99.90;;;;;;4937102;29;20421;-86
2021/07/23 13:55:06;;;;;;;14.10;11.00;;;29.50;99.90;;;;;;4936883;29;20461;-87
2021/07/23 13:57:32;;;;;;;11.70;10.60;;;29.60;99.90;;;;;;4938101;29;20481;-88
2021/07/23 14:00:06;;;;;;;12.20;10.90;;;29.50;99.00;;;;;;4937894;29;20769;-87
2021/07/23 14:02:33;;;;;;;11.17;9.97;;;29.50;99.10;;;;;;4937900;29;20298;-88
2021/07/23 14:04:59;;;;;;;13.07;10.60;;;29.40;99.90;;;;;;4937731;29;20428;-88
2021/07/23 14:07:25;;;;;;;11.90;10.07;;;29.50;99.30;;;;;;4937935;29;20512;-86
2021/07/23 14:09:50;;;;;;;12.68;9.68;;;29.40;99.20;;;;;;4937298;29;20444;-87
2021/07/23 14:12:16;;;;;;;11.03;9.93;;;29.40;98.60;;;;;;4936804;29;20197;-86
2021/07/23 14:14:42;;;;;;;11.00;9.90;;;29.40;99.20;;;;;;4940090;29;20173;-81
2021/07/23 14:17:07;;;;;;;11.83;10.23;;;29.40;97.90;;;;;;4942864;29;20196;-81
2021/07/23 14:19:33;;;;;;;12.73;9.37;;;29.40;99.80;;;;;;4941604;29;20180;-82
2021/07/23 14:21:59;;;;;;;15.80;10.63;;;29.20;97.80;;;;;;4940225;29;20210;-84
2021/07/23 14:24:24;;;;;;;10.30;9.23;;;29.20;98.50;;;;;;4937157;29;20174;-84
2021/07/23 14:26:50;;;;;;;10.07;9.07;;;29.20;98.10;;;;;;4936141;29;20272;-83
2021/07/23 14:29:15;;;;;;;12.80;8.77;;;29.20;99.70;;;;;;4935963;29;20212;-84
2021/07/23 14:31:41;;;;;;;13.93;10.30;;;29.30;99.90;;;;;;4937400;29;20213;-84
2021/07/23 14:34:07;;;;;;;11.53;10.43;;;29.30;99.80;;;;;;4937185;29;20178;-84
2021/07/23 14:36:32;;;;;;;12.77;10.13;;;29.30;99.90;;;;;;4937517;29;20177;-84
2021/07/23 14:38:58;;;;;;;11.17;10.03;;;29.40;99.90;;;;;;4937438;29;20212;-85
2021/07/23 14:41:23;;;;;;;12.40;10.53;;;29.20;99.70;;;;;;4937064;29;20204;-84
2021/07/23 14:43:49;;;;;;;10.40;9.30;;;29.10;99.10;;;;;;4937254;29;20181;-85
2021/07/23 14:46:15;;;;;;;11.03;10.00;;;29.20;99.90;;;;;;4935982;29;20197;-84
2021/07/23 14:48:40;;;;;;;11.70;10.57;;;29.10;99.90;;;;;;4936977;29;20290;-84
2021/07/23 14:51:08;;;;;;;21.70;10.73;;;29.20;99.50;;;;;;4936797;29;20205;-85
2021/07/23 14:53:34;;;;;;;11.00;9.90;;;29.00;98.80;;;;;;4937123;29;20534;-84
2021/07/23 14:56:00;;;;;;;10.13;9.27;;;29.00;99.10;;;;;;4936730;29;20413;-84
2021/07/23 14:58:26;;;;;;;13.43;9.90;;;29.00;99.90;;;;;;4937140;29;20252;-85
2021/07/23 15:00:52;;;;;;;12.23;10.20;;;29.00;99.30;;;;;;4935295;29;20588;-84
2021/07/23 15:03:17;;;;;;;12.80;10.10;;;29.00;99.70;;;;;;4937118;29;20457;-85
2021/07/23 15:05:43;;;;;;;11.00;9.77;;;29.00;99.90;;;;;;4937074;29;20682;-85
2021/07/23 15:08:08;;;;;;;12.40;10.93;;;29.00;99.40;;;;;;4937044;29;20192;-84
2021/07/23 15:10:35;;;;;;;10.27;9.27;;;28.90;99.00;;;;;;4938199;29;20216;-85
2021/07/23 15:13:01;;;;;;;11.73;10.50;;;28.80;98.90;;;;;;4936405;29;20230;-84
2021/07/23 15:15:26;;;;;;;13.77;10.63;;;28.70;99.50;;;;;;4937302;29;20415;-85
2021/07/23 15:17:55;;;;;;;11.07;10.00;;;28.70;98.40;;;;;;4936572;29;20847;-85
2021/07/23 15:20:22;;;;;;;12.83;9.90;;;28.60;99.60;;;;;;4936202;29;20194;-85
2021/07/23 15:22:48;;;;;;;15.13;10.27;;;28.50;99.20;;;;;;4936804;29;20504;-83
2021/07/23 15:25:16;;;;;;;12.90;11.07;;;28.50;99.10;;;;;;4936204;29;20500;-84
2021/07/23 15:27:42;;;;;;;11.90;9.30;;;28.40;99.70;;;;;;4936173;29;20177;-84
2021/07/23 15:30:10;;;;;;;11.13;9.90;;;28.40;99.90;;;;;;4936294;29;20487;-84
2021/07/23 15:32:36;;;;;;;11.87;10.20;;;28.40;99.90;;;;;;4936241;29;20540;-90
2021/07/23 15:35:04;;;;;;;13.67;10.43;;;28.30;99.10;;;;;;4936653;29;20417;-83
2021/07/23 15:37:32;;;;;;;10.40;9.50;;;28.30;99.70;;;;;;4936253;29;20409;-84
2021/07/23 15:39:57;;;;;;;10.77;9.67;;;28.30;99.90;;;;;;4936312;29;20417;-84
2021/07/23 15:42:23;;;;;;;11.23;9.90;;;28.30;99.30;;;;;;4936035;29;20409;-80
2021/07/23 15:44:49;;;;;;;12.10;10.10;;;28.30;99.60;;;;;;4935944;29;20193;-80
2021/07/23 15:47:15;;;;;;;14.50;9.57;;;28.30;99.90;;;;;;4935524;29;20276;-80
2021/07/23 15:49:40;;;;;;;13.53;10.20;;;28.20;99.90;;;;;;4934715;29;20568;-80
2021/07/23 15:52:07;;;;;;;22.47;10.57;;;28.30;99.30;;;;;;4936603;29;20559;-81
2021/07/23 15:54:33;;;;;;;13.23;10.03;;;28.30;99.30;;;;;;4936663;29;20204;-83
2021/07/23 15:56:59;;;;;;;13.50;10.67;;;28.20;99.00;;;;;;4937301;29;20453;-79
2021/07/23 15:59:25;;;;;;;10.70;9.70;;;28.20;99.50;;;;;;4936998;29;20421;-79
2021/07/23 16:01:50;;;;;;;11.43;8.70;;;28.10;98.80;;;;;;4936906;29;20764;-79
2021/07/23 16:04:16;;;;;;;10.90;9.90;;;28.00;99.50;;;;;;4936326;29;20271;-79
2021/07/23 16:06:46;;;;;;;13.63;9.40;;;28.00;99.40;;;;;;4936438;29;20181;-79
2021/07/23 16:09:12;;;;;;;12.80;9.90;;;27.90;99.60;;;;;;4935060;29;20748;-79
2021/07/23 16:11:38;;;;;;;13.13;8.90;;;27.90;99.90;;;;;;4936460;29;20436;-78
2021/07/23 16:14:04;;;;;;;15.20;11.00;;;27.90;99.90;;;;;;4935926;29;20444;-79
2021/07/23 16:16:29;;;;;;;13.43;11.30;;;27.90;99.90;;;;;;4936565;29;20185;-85
2021/07/23 16:18:55;;;;;;;10.20;9.20;;;27.90;99.90;;;;;;4936882;29;20185;-85
2021/07/23 16:21:25;;;;;;;11.47;9.13;;;28.00;99.70;;;;;;4936963;29;20201;-85
2021/07/23 16:23:52;;;;;;;10.87;9.17;;;27.90;99.90;;;;;;4939969;29;20177;-80
2021/07/23 16:26:18;;;;;;;12.30;10.60;;;27.90;99.70;;;;;;4940471;29;20480;-80
2021/07/23 16:28:43;;;;;;;10.17;8.93;;;27.80;99.40;;;;;;4940479;29;20551;-80
2021/07/23 16:31:09;;;;;;;11.60;10.03;;;27.80;99.70;;;;;;4939832;29;20460;-81
2021/07/23 16:33:34;;;;;;;19.47;9.07;;;27.80;99.80;;;;;;4940545;29;20702;-87
2021/07/23 16:36:00;;;;;;;10.90;9.77;;;27.80;99.90;;;;;;4939881;29;20588;-85
2021/07/23 16:38:26;;;;;;;11.60;10.43;;;27.80;99.90;;;;;;4939781;29;20203;-85
2021/07/23 16:40:51;;;;;;;12.43;9.63;;;27.80;99.90;;;;;;4939733;29;20207;-85
2021/07/23 16:43:17;;;;;;;11.50;10.07;;;27.90;99.90;;;;;;4940501;29;20189;-84
2021/07/23 16:45:43;;;;;;;12.07;10.03;;;27.80;99.80;;;;;;4940801;29;20201;-85
2021/07/23 16:48:09;;;;;;;10.93;9.83;;;27.80;99.90;;;;;;4940241;29;20231;-84
2021/07/23 16:50:35;;;;;;;16.47;10.80;;;27.70;99.70;;;;;;4939054;29;20523;-84
2021/07/23 16:53:00;;;;;;;12.60;9.33;;;27.70;99.90;;;;;;4939670;29;20542;-85
2021/07/23 16:55:26;;;;;;;13.00;10.20;;;27.60;99.90;;;;;;4939533;29;20260;-85
2021/07/23 16:57:57;;;;;;;12.70;10.47;;;27.60;99.90;;;;;;4939808;29;20214;-88
2021/07/23 17:00:26;;;;;;;13.53;9.13;;;27.60;99.90;;;;;;4939259;29;20189;-89
2021/07/23 17:02:56;;;;;;;9.40;8.50;;;27.60;99.90;;;;;;4939636;29;20448;-90